CET,Max TemperatureF,Mean TemperatureF,Min TemperatureF,Max Dew PointF,MeanDew PointF,Min DewpointF,Max Humidity, Mean Humidity, Min Humidity, Max Sea Level PressureIn, Mean Sea Level PressureIn, Min Sea Level PressureIn, Max VisibilityMiles, Mean VisibilityMiles, Min VisibilityMiles, Max Wind SpeedMPH, Mean Wind SpeedMPH, Max Gust SpeedMPH,PrecipitationIn, CloudCover, Events, WindDirDegrees
2014-1-1,48,44,41,46,41,39,93,85,71,29.74,29.61,29.33,19,8,2,22,16,36,0.08,7,Rain,176
2014-1-2,50,47,44,46,44,41,93,82,73,29.62,29.43,29.27,18,8,5,22,18,33,0.01,6,Rain,198
2014-1-3,53,48,44,47,43,37,93,82,64,29.62,29.51,29.44,14,7,1,41,17,54,0.12,5,Rain,195
2014-1-4,50,46,43,45,42,38,87,82,69,29.68,29.50,29.33,18,7,6,30,18,46,0.01,5,Rain,175
2014-1-5,45,41,37,45,39,36,93,82,73,29.77,29.62,29.36,19,9,6,18,12,,0.00,6,Rain,204
2014-1-6,57,49,41,50,48,39,100,83,71,29.60,29.53,29.47,19,7,2,27,20,43,0.01,6,Rain,193
2014-1-7,53,50,48,46,44,43,83,76,64,29.85,29.74,29.62,19,8,6,25,19,37,0.00,5,Rain,201
2014-1-8,50,47,44,47,45,43,93,87,79,30.04,29.95,29.80,17,8,4,22,14,32,0.00,6,Rain,205
2014-1-9,52,48,44,50,45,37,100,83,67,29.88,29.68,29.56,19,8,4,36,18,48,0.01,6,Rain,224
2014-1-10,47,44,41,43,40,37,93,83,68,30.00,29.95,29.83,17,8,4,18,13,,0.00,5,,225
2014-1-11,47,41,35,43,38,32,93,85,64,30.22,30.02,29.92,19,6,2,20,13,31,0.00,6,Rain,243
2014-1-12,44,38,31,37,34,30,100,85,59,30.26,30.14,29.89,19,8,3,15,6,,0.00,8,,171
2014-1-13,48,42,37,45,41,32,93,86,71,29.89,29.78,29.68,19,7,4,21,13,32,0.00,6,Rain,195
2014-1-14,44,42,39,43,40,37,100,90,79,29.76,29.66,29.59,19,7,4,13,10,,0.08,7,Rain,174
2014-1-15,45,40,36,45,39,34,100,91,78,29.77,29.65,29.53,19,7,2,18,11,24,0.12,8,Fog-Rain,179
2014-1-16,48,46,43,46,44,41,100,90,82,29.54,29.43,29.36,19,7,3,16,14,,0.16,7,Rain,176
2014-1-17,48,46,43,45,42,39,93,84,68,29.49,29.42,29.36,19,8,6,18,14,,0.08,7,Rain,183
2014-1-18,47,44,41,45,40,37,93,80,67,29.52,29.47,29.42,19,9,6,13,10,,0.00,7,Rain,139
2014-1-19,46,43,39,43,39,36,100,83,73,29.60,29.46,29.39,19,8,3,13,8,,0.00,7,Rain,118
2014-1-20,42,38,35,42,39,35,100,97,91,29.84,29.70,29.59,6,2,0,7,3,,0.08,7,Fog-Rain,1
2014-1-21,45,40,36,42,39,35,100,93,77,29.90,29.87,29.83,19,4,1,11,3,,0.00,8,Rain,218
2014-1-22,41,38,35,37,34,30,93,80,66,29.91,29.86,29.83,14,7,5,15,11,,0.04,8,Rain,159
2014-1-23,44,40,37,43,38,34,100,92,75,29.92,29.85,29.77,12,4,0,16,9,,0.39,7,Fog-Rain,192
2014-1-24,45,40,36,41,37,32,98,84,68,30.06,29.97,29.83,17,8,2,11,6,,0.03,7,Rain,244
2014-1-25,44,40,37,41,34,30,100,79,66,30.07,29.93,29.62,17,8,3,27,12,40,0.24,7,Rain,182
2014-1-26,44,42,39,43,37,35,100,80,65,29.89,29.61,29.15,11,7,2,25,17,37,0.24,7,Rain,236
2014-1-27,40,38,37,38,35,32,93,83,65,29.32,29.27,29.21,19,8,6,20,14,31,0.04,6,Rain-Thunderstorm,208
2014-1-28,42,40,37,37,35,34,93,81,68,29.42,29.34,29.30,19,9,6,22,16,34,0.02,7,Rain,156
2014-1-29,36,33,30,33,30,27,87,82,69,29.61,29.50,29.42,19,6,3,22,15,,0.00,5,,92
2014-1-30,40,34,29,34,31,27,93,84,72,29.74,29.67,29.62,6,4,3,13,9,,0.00,7,,89
2014-1-31,44,36,27,39,34,28,100,87,63,29.76,29.66,29.42,14,5,1,21,7,,0.16,7,Rain,148